Time;durP1;ratioP1;P1;durP2;ratioP2;P2;SDS_P1;SDS_P2;PMS_P1;PMS_P2;Temp;Humidity;BMP_temperature;BMP_pressure;BME280_temperature;BME280_humidity;BME280_pressure;Samples;Min_cycle;Max_cycle;Signal;HPM_P1;HPM_P2
2024/02/17 00:01:31;;;;;;;14.30;8.70;;;;;;;10.02;77.88;100558.02;129611;1280;128878;-62
2024/02/17 00:04:33;;;;;;;18.60;9.10;;;;;;;10.04;78.04;100554.91;129608;1261;114828;-63
2024/02/17 00:07:36;;;;;;;13.30;8.30;;;;;;;10.06;77.95;100553.92;129449;1262;114709;-62
2024/02/17 00:10:39;;;;;;;17.90;9.50;;;;;;;10.08;77.73;100556.52;129538;1280;114984;-62
2024/02/17 00:13:43;;;;;;;15.60;8.10;;;;;;;10.10;77.80;100562.14;129400;1261;115329;-62
2024/02/17 00:16:45;;;;;;;13.10;8.10;;;;;;;10.12;77.82;100563.66;129540;1259;114707;-62
2024/02/17 00:19:48;;;;;;;14.60;8.30;;;;;;;10.13;77.63;100555.74;129561;1262;114860;-61
2024/02/17 00:22:50;;;;;;;14.50;7.30;;;;;;;10.15;77.68;100558.54;129538;1280;114794;-62
2024/02/17 00:25:53;;;;;;;11.60;8.30;;;;;;;10.16;77.57;100558.85;129587;1258;114799;-62
2024/02/17 00:28:57;;;;;;;12.70;7.30;;;;;;;10.17;77.72;100561.67;129673;1260;114789;-62
2024/02/17 00:31:59;;;;;;;11.80;7.60;;;;;;;10.17;77.61;100564.71;129556;1259;115145;-62
2024/02/17 00:35:01;;;;;;;15.00;9.30;;;;;;;10.17;77.78;100569.36;129403;1274;115147;-62
2024/02/17 00:38:04;;;;;;;12.80;8.40;;;;;;;10.18;77.60;100568.41;129582;1257;116202;-62
2024/02/17 00:41:07;;;;;;;12.80;8.40;;;;;;;10.17;77.79;100573.30;129537;1261;127739;-61
2024/02/17 00:44:09;;;;;;;12.50;8.00;;;;;;;10.15;77.82;100572.27;129454;1260;114715;-61
2024/02/17 00:47:11;;;;;;;10.90;6.30;;;;;;;10.16;77.92;100575.08;129585;1264;114620;-62
2024/02/17 00:50:14;;;;;;;11.50;7.30;;;;;;;10.18;77.64;100575.73;129489;1264;114961;-61
2024/02/17 00:53:16;;;;;;;11.40;6.70;;;;;;;10.19;77.91;100581.92;129626;1261;114713;-62
2024/02/17 00:56:21;;;;;;;12.90;7.70;;;;;;;10.19;78.16;100581.72;129482;1258;114739;-60
2024/02/17 00:59:23;;;;;;;10.30;6.10;;;;;;;10.22;78.01;100583.05;129712;1261;115021;-61
2024/02/17 01:02:31;;;;;;;11.90;5.90;;;;;;;10.23;78.19;100582.28;129601;1261;114794;-61
2024/02/17 01:05:34;;;;;;;7.90;5.70;;;;;;;10.26;78.27;100584.69;129628;1275;114702;-61
2024/02/17 01:08:37;;;;;;;9.20;5.60;;;;;;;10.27;78.06;100586.39;129547;1258;115106;-61
2024/02/17 01:11:39;;;;;;;9.70;6.70;;;;;;;10.31;78.04;100582.64;129614;1257;114724;-61
2024/02/17 01:14:41;;;;;;;12.60;6.40;;;;;;;10.36;78.05;100584.74;129433;1261;114735;-61
2024/02/17 01:17:43;;;;;;;10.30;6.00;;;;;;;10.41;77.77;100589.95;129458;1259;114832;-61
2024/02/17 01:20:46;;;;;;;9.90;6.70;;;;;;;10.45;77.70;100591.36;129475;1259;114787;-61
2024/02/17 01:23:48;;;;;;;12.80;7.60;;;;;;;10.49;77.62;100591.02;129742;1261;115140;-61
2024/02/17 01:26:50;;;;;;;12.80;6.90;;;;;;;10.53;77.76;100596.71;129338;1263;214298;-61
2024/02/17 01:29:52;;;;;;;10.10;6.40;;;;;;;10.58;77.49;100596.48;129392;1280;114816;-62
2024/02/17 01:32:54;;;;;;;11.70;7.00;;;;;;;10.63;77.43;100602.89;129425;1257;115280;-62
2024/02/17 01:35:56;;;;;;;9.80;7.00;;;;;;;10.68;77.74;100601.05;129662;1258;115638;-61
2024/02/17 01:38:58;;;;;;;10.60;7.30;;;;;;;10.72;78.05;100603.02;129546;1280;128815;-61
2024/02/17 01:42:00;;;;;;;10.80;7.20;;;;;;;10.75;78.15;100602.17;129453;1257;114698;-61
2024/02/17 01:45:03;;;;;;;11.80;7.10;;;;;;;10.77;78.42;100603.50;129537;1262;114825;-61
2024/02/17 01:48:06;;;;;;;11.80;7.00;;;;;;;10.79;78.45;100602.70;129569;1259;114730;-61
2024/02/17 01:51:11;;;;;;;10.20;6.70;;;;;;;10.82;78.49;100603.11;129586;1258;114786;-62
2024/02/17 01:54:14;;;;;;;10.30;6.90;;;;;;;10.84;78.42;100603.94;129481;1263;114761;-62
2024/02/17 01:57:16;;;;;;;9.40;5.90;;;;;;;10.85;78.65;100605.30;129544;1280;115075;-62
2024/02/17 02:00:19;;;;;;;9.40;6.00;;;;;;;10.84;78.84;100600.14;129538;1259;115142;-61
2024/02/17 02:03:21;;;;;;;8.90;5.50;;;;;;;10.83;78.81;100599.52;129708;1265;115525;-62
2024/02/17 02:06:24;;;;;;;8.50;6.30;;;;;;;10.83;78.89;100602.73;129537;1261;115412;-62
2024/02/17 02:09:26;;;;;;;8.90;6.60;;;;;;;10.82;79.15;100608.30;129583;1261;114692;-62
2024/02/17 02:12:28;;;;;;;8.50;6.40;;;;;;;10.82;79.24;100612.40;129527;1262;114704;-61
2024/02/17 02:15:31;;;;;;;9.50;5.80;;;;;;;10.82;79.54;100618.13;129566;1276;114935;-61
2024/02/17 02:18:33;;;;;;;6.90;5.60;;;;;;;10.82;79.22;100617.77;129590;1280;128773;-62
2024/02/17 02:21:37;;;;;;;10.00;6.30;;;;;;;10.82;79.33;100621.15;129524;1257;115219;-62
2024/02/17 02:24:39;;;;;;;9.50;6.30;;;;;;;10.83;79.27;100624.89;129652;1258;114761;-62
2024/02/17 02:27:41;;;;;;;8.50;6.70;;;;;;;10.84;79.46;100631.45;129548;1261;114866;-62
2024/02/17 02:30:44;;;;;;;8.50;6.00;;;;;;;10.84;79.44;100630.91;129595;1275;114790;-62
2024/02/17 02:33:47;;;;;;;9.90;6.30;;;;;;;10.84;79.47;100632.17;129551;1258;114960;-62
2024/02/17 02:36:49;;;;;;;10.50;6.10;;;;;;;10.83;79.35;100628.81;129756;1261;127763;-61
2024/02/17 02:39:51;;;;;;;7.60;5.80;;;;;;;10.82;79.57;100630.80;129542;1274;114927;-63
2024/02/17 02:42:53;;;;;;;8.50;5.60;;;;;;;10.83;79.87;100633.65;129671;1257;114765;-61
2024/02/17 02:45:55;;;;;;;7.40;5.60;;;;;;;10.82;79.70;100629.73;129622;1257;114782;-61
2024/02/17 02:48:57;;;;;;;7.80;6.20;;;;;;;10.82;79.98;100635.61;129846;1261;114826;-61
2024/02/17 02:51:59;;;;;;;9.60;6.60;;;;;;;10.82;80.02;100643.33;129741;1263;114738;-61
2024/02/17 02:55:01;;;;;;;9.20;6.50;;;;;;;10.81;80.65;100646.23;129511;1266;116070;-61
2024/02/17 02:58:04;;;;;;;10.50;6.20;;;;;;;10.79;80.47;100652.73;129494;1275;114795;-61
2024/02/17 03:01:06;;;;;;;10.60;6.90;;;;;;;10.77;81.13;100653.18;129651;1259;114729;-61
2024/02/17 03:04:08;;;;;;;9.00;6.50;;;;;;;10.75;81.60;100658.09;129633;1258;114742;-61
2024/02/17 03:07:10;;;;;;;10.60;7.40;;;;;;;10.73;81.65;100655.15;129606;1260;114698;-61
2024/02/17 03:10:13;;;;;;;11.90;7.90;;;;;;;10.70;82.14;100662.60;129626;1280;114752;-62
2024/02/17 03:13:15;;;;;;;10.80;7.00;;;;;;;10.67;82.32;100669.14;129621;1259;114796;-61
2024/02/17 03:16:25;;;;;;;10.20;7.50;;;;;;;10.65;82.28;100667.29;129578;1261;115364;-62
2024/02/17 03:19:27;;;;;;;11.00;6.90;;;;;;;10.61;82.32;100669.92;129443;1259;114934;-62
2024/02/17 03:22:30;;;;;;;9.20;6.80;;;;;;;10.59;82.79;100677.00;129720;1261;114766;-63
2024/02/17 03:25:32;;;;;;;13.10;7.90;;;;;;;10.56;82.72;100678.38;129629;1261;114748;-60
2024/02/17 03:28:34;;;;;;;10.20;8.00;;;;;;;10.54;83.19;100684.21;129559;1262;115266;-62
2024/02/17 03:31:36;;;;;;;10.30;7.40;;;;;;;10.49;83.10;100687.09;129384;1280;114875;-61
2024/02/17 03:34:42;;;;;;;10.00;7.30;;;;;;;10.45;83.78;100696.17;129573;1258;114828;-61
2024/02/17 03:37:44;;;;;;;9.80;7.90;;;;;;;10.42;83.87;100697.39;129318;1259;114794;-63
2024/02/17 03:40:46;;;;;;;10.70;8.50;;;;;;;10.38;83.91;100698.08;129660;1260;114724;-61
2024/02/17 03:43:48;;;;;;;12.30;8.30;;;;;;;10.35;84.18;100701.91;129558;1261;115283;-61
2024/02/17 03:46:50;;;;;;;12.90;9.50;;;;;;;10.33;84.29;100705.77;129523;1259;115077;-62
2024/02/17 03:49:52;;;;;;;12.70;8.50;;;;;;;10.30;84.57;100707.48;129867;1261;115162;-61
2024/02/17 03:52:55;;;;;;;11.50;8.70;;;;;;;10.28;85.04;100709.72;129589;1261;114975;-61
2024/02/17 03:55:57;;;;;;;12.70;8.50;;;;;;;10.26;84.92;100714.45;129554;1264;127667;-63
2024/02/17 03:58:59;;;;;;;14.10;9.60;;;;;;;10.24;85.46;100720.79;129414;1280;114710;-61
2024/02/17 04:02:01;;;;;;;14.70;9.20;;;;;;;10.23;85.65;100721.20;129576;1259;115149;-61
2024/02/17 04:05:03;;;;;;;12.80;9.40;;;;;;;10.21;85.66;100728.05;129445;1261;114873;-60
2024/02/17 04:08:06;;;;;;;14.00;9.40;;;;;;;10.19;85.91;100732.75;129752;1261;115378;-60
2024/02/17 04:11:09;;;;;;;14.80;9.90;;;;;;;10.16;85.89;100733.61;129469;1263;114908;-61
2024/02/17 04:14:11;;;;;;;14.40;10.10;;;;;;;10.14;86.12;100739.02;129553;1259;114765;-61
2024/02/17 04:17:13;;;;;;;15.70;11.20;;;;;;;10.11;86.22;100738.96;129909;1257;114866;-60
2024/02/17 04:20:15;;;;;;;15.70;9.80;;;;;;;10.09;86.32;100738.89;129539;1258;114663;-61
2024/02/17 04:23:18;;;;;;;13.80;10.80;;;;;;;10.07;86.52;100738.27;129428;1261;114719;-60
2024/02/17 04:26:20;;;;;;;15.30;11.10;;;;;;;10.05;86.55;100740.28;129820;1271;114717;-61
2024/02/17 04:29:22;;;;;;;14.00;10.50;;;;;;;10.04;86.97;100746.91;129561;1264;114888;-61
2024/02/17 04:32:25;;;;;;;17.30;11.90;;;;;;;10.01;87.00;100747.38;129666;1262;114702;-61
2024/02/17 04:35:27;;;;;;;13.20;10.60;;;;;;;10.01;87.09;100751.35;129606;1280;114818;-60
2024/02/17 04:38:29;;;;;;;14.90;10.60;;;;;;;10.00;87.42;100750.14;129506;1263;114759;-61
2024/02/17 04:41:31;;;;;;;14.60;11.20;;;;;;;9.99;87.59;100757.65;129544;1261;114829;-61
2024/02/17 04:44:34;;;;;;;14.80;10.40;;;;;;;9.99;87.58;100760.70;129479;1261;114707;-61
2024/02/17 04:47:36;;;;;;;16.40;11.00;;;;;;;9.99;87.87;100759.98;129581;1259;114771;-61
2024/02/17 04:50:38;;;;;;;15.10;10.30;;;;;;;9.98;88.07;100762.49;129274;1262;114748;-61
2024/02/17 04:53:41;;;;;;;14.00;9.80;;;;;;;9.98;88.07;100760.89;129437;1261;114777;-61
2024/02/17 04:56:43;;;;;;;15.30;12.00;;;;;;;9.98;88.21;100765.35;129545;1259;115497;-60
2024/02/17 04:59:45;;;;;;;17.20;10.60;;;;;;;9.98;88.20;100763.58;129522;1259;128350;-61
2024/02/17 05:02:47;;;;;;;15.60;10.80;;;;;;;9.99;88.35;100767.81;129558;1259;114831;-61
2024/02/17 05:05:49;;;;;;;16.10;11.10;;;;;;;9.99;88.38;100772.63;129534;1261;114797;-62
2024/02/17 05:08:51;;;;;;;16.50;12.50;;;;;;;10.00;88.43;100773.85;129430;1261;114711;-61
2024/02/17 05:11:55;;;;;;;17.00;11.90;;;;;;;10.00;88.50;100772.05;129551;1261;114748;-60
2024/02/17 05:14:57;;;;;;;15.60;11.60;;;;;;;9.99;88.84;100775.86;129482;1259;115390;-60
2024/02/17 05:18:00;;;;;;;15.60;11.30;;;;;;;9.97;88.71;100777.70;129491;1261;114806;-61
2024/02/17 05:21:02;;;;;;;17.90;11.60;;;;;;;9.95;88.90;100777.25;129561;1263;114717;-61
2024/02/17 05:24:06;;;;;;;14.80;10.80;;;;;;;9.94;89.05;100773.35;129570;1259;114722;-61
2024/02/17 05:27:08;;;;;;;16.00;12.00;;;;;;;9.93;88.99;100771.08;129537;1261;114727;-61
2024/02/17 05:30:14;;;;;;;18.00;13.10;;;;;;;9.94;89.05;100769.11;129463;1274;114822;-60
2024/02/17 05:33:16;;;;;;;14.70;10.40;;;;;;;9.92;89.38;100762.02;129450;1262;114694;-61
2024/02/17 05:36:18;;;;;;;17.30;12.50;;;;;;;9.92;89.47;100757.56;129409;1261;114782;-61
2024/02/17 05:39:20;;;;;;;18.20;13.30;;;;;;;9.91;89.53;100757.25;129580;1280;114722;-61
2024/02/17 05:42:23;;;;;;;15.80;12.60;;;;;;;9.91;89.51;100773.30;129371;1280;114989;-61
2024/02/17 05:45:25;;;;;;;17.10;11.30;;;;;;;9.91;89.43;100776.35;129488;1261;115137;-60
2024/02/17 05:48:27;;;;;;;18.60;11.50;;;;;;;9.90;89.67;100781.02;129536;1260;115323;-60
2024/02/17 05:51:29;;;;;;;17.10;11.50;;;;;;;9.90;89.81;100785.33;129484;1280;114628;-61
2024/02/17 05:54:32;;;;;;;14.70;11.00;;;;;;;9.90;89.88;100791.02;129265;1267;115098;-61
2024/02/17 05:57:34;;;;;;;15.00;10.90;;;;;;;9.90;90.15;100795.66;129505;1259;114820;-60
2024/02/17 06:00:36;;;;;;;15.80;11.20;;;;;;;9.91;90.18;100795.45;129729;1261;114708;-62
2024/02/17 06:03:38;;;;;;;14.30;11.10;;;;;;;9.92;90.45;100800.40;129599;1263;114884;-60
2024/02/17 06:06:41;;;;;;;15.50;11.10;;;;;;;9.93;90.67;100803.93;129549;1261;115226;-62
2024/02/17 06:09:43;;;;;;;15.00;11.90;;;;;;;9.94;90.78;100807.09;129481;1261;114727;-61
2024/02/17 06:12:45;;;;;;;16.10;10.80;;;;;;;9.95;90.68;100811.52;129514;1280;114706;-61
2024/02/17 06:15:48;;;;;;;16.40;10.50;;;;;;;9.96;90.84;100818.27;129396;1259;114895;-62
2024/02/17 06:22:10;;;;;;;15.00;10.50;;;;;;;9.99;91.06;100834.38;129260;1280;114716;-62
2024/02/17 06:25:12;;;;;;;16.90;10.50;;;;;;;10.00;91.05;100839.87;129466;1261;115408;-61
2024/02/17 06:28:14;;;;;;;17.70;10.80;;;;;;;10.01;91.38;100845.36;129490;1265;114764;-61
2024/02/17 06:31:16;;;;;;;14.70;10.90;;;;;;;10.03;91.43;100848.69;129295;1262;114755;-61
2024/02/17 06:34:19;;;;;;;14.50;10.80;;;;;;;10.04;91.29;100854.17;129635;1262;115148;-61
2024/02/17 06:37:23;;;;;;;15.60;10.90;;;;;;;10.06;91.49;100859.64;129585;1261;114748;-61
2024/02/17 06:40:24;;;;;;;16.80;12.40;;;;;;;10.08;91.72;100865.99;129513;1261;128106;-62
2024/02/17 06:43:26;;;;;;;14.30;11.60;;;;;;;10.09;91.78;100875.05;129462;1272;114761;-62
2024/02/17 06:46:28;;;;;;;17.10;11.90;;;;;;;10.10;91.72;100880.52;129501;1259;114756;-62
2024/02/17 06:49:31;;;;;;;14.10;10.50;;;;;;;10.11;91.95;100891.19;129322;1264;114988;-61
2024/02/17 06:52:33;;;;;;;15.50;10.50;;;;;;;10.13;92.20;100895.08;129596;1257;115315;-62
2024/02/17 06:55:36;;;;;;;17.30;12.10;;;;;;;10.13;92.09;100902.89;129568;1257;114631;-61
2024/02/17 06:58:38;;;;;;;14.70;10.40;;;;;;;10.14;92.27;100904.46;129440;1262;114798;-61
2024/02/17 07:01:40;;;;;;;14.20;10.80;;;;;;;10.16;92.12;100899.92;129500;1263;114797;-61
2024/02/17 07:04:42;;;;;;;14.40;10.60;;;;;;;10.17;92.27;100899.54;129600;1280;114800;-62
2024/02/17 07:07:44;;;;;;;16.50;11.70;;;;;;;10.18;92.12;100902.20;129290;1259;114858;-62
2024/02/17 07:10:46;;;;;;;16.20;10.60;;;;;;;10.18;92.36;100899.50;129487;1261;115240;-61
2024/02/17 07:13:49;;;;;;;13.20;10.30;;;;;;;10.20;92.62;100902.98;129853;1260;114691;-62
2024/02/17 07:16:51;;;;;;;13.80;10.10;;;;;;;10.22;92.71;100910.78;129638;1271;114688;-61
2024/02/17 07:19:53;;;;;;;14.30;11.30;;;;;;;10.25;92.69;100915.87;129527;1261;115273;-62
2024/02/17 07:22:56;;;;;;;14.30;10.90;;;;;;;10.28;92.69;100914.67;129537;1273;114811;-62
2024/02/17 07:25:58;;;;;;;13.60;10.10;;;;;;;10.30;93.00;100915.65;129341;1264;128624;-62
2024/02/17 07:29:00;;;;;;;17.20;10.70;;;;;;;10.33;93.13;100920.35;129160;1265;115013;-61
2024/02/17 07:32:03;;;;;;;14.00;10.50;;;;;;;10.38;93.04;100921.10;129212;1265;114811;-62
2024/02/17 07:35:06;;;;;;;15.50;10.10;;;;;;;10.42;93.10;100929.16;129355;1264;115513;-62
2024/02/17 07:38:08;;;;;;;12.70;9.30;;;;;;;10.45;92.95;100939.05;129330;1264;114920;-62
2024/02/17 07:41:10;;;;;;;13.00;9.90;;;;;;;10.47;93.11;100942.90;129272;1264;114869;-62
2024/02/17 07:44:14;;;;;;;12.60;9.70;;;;;;;10.51;93.35;100948.83;129516;1261;114751;-62
2024/02/17 07:47:16;;;;;;;13.00;9.90;;;;;;;10.54;93.19;100953.72;129419;1280;128460;-62
2024/02/17 07:50:18;;;;;;;12.90;10.30;;;;;;;10.58;93.30;100954.26;129728;1261;115727;-62
2024/02/17 07:53:20;;;;;;;13.90;11.30;;;;;;;10.62;93.20;100959.27;129723;1262;114711;-62
2024/02/17 07:56:23;;;;;;;11.60;9.20;;;;;;;10.67;93.56;100967.11;129541;1262;114725;-61
2024/02/17 07:59:26;;;;;;;11.40;8.40;;;;;;;10.73;93.79;100970.81;129366;1271;114870;-61
2024/02/17 08:02:28;;;;;;;11.20;8.20;;;;;;;10.78;93.85;100968.10;129464;1266;114789;-62
2024/02/17 08:05:31;;;;;;;9.90;7.20;;;;;;;10.85;93.67;100971.77;129681;1280;114829;-62
2024/02/17 08:08:33;;;;;;;9.80;7.40;;;;;;;10.89;93.93;100978.05;129429;1261;129023;-61
2024/02/17 08:11:37;;;;;;;8.40;6.40;;;;;;;10.90;93.90;100981.58;129576;1262;115256;-61
2024/02/17 08:14:40;;;;;;;8.60;6.00;;;;;;;10.90;93.69;100983.58;129541;1263;114824;-61
2024/02/17 08:17:42;;;;;;;9.30;5.60;;;;;;;10.91;93.82;100991.03;129527;1280;114721;-61
2024/02/17 08:20:46;;;;;;;7.70;5.20;;;;;;;10.94;93.92;100995.75;129592;1257;114810;-61
2024/02/17 08:23:48;;;;;;;7.00;4.70;;;;;;;11.00;93.86;100996.73;129511;1262;114715;-61
2024/02/17 08:26:50;;;;;;;6.10;4.40;;;;;;;11.07;93.75;101004.86;129566;1276;114701;-61
2024/02/17 08:29:52;;;;;;;5.80;5.10;;;;;;;11.15;94.07;100997.93;129276;1263;114893;-61
2024/02/17 08:32:56;;;;;;;6.00;5.00;;;;;;;11.24;93.79;101005.09;129622;1261;114948;-61
2024/02/17 08:35:58;;;;;;;6.10;4.80;;;;;;;11.34;94.26;101009.14;129623;1280;114928;-61
2024/02/17 08:39:00;;;;;;;6.90;5.50;;;;;;;11.45;94.32;101018.35;129421;1265;115032;-62
2024/02/17 08:42:02;;;;;;;18.80;12.80;;;;;;;11.54;94.21;101016.00;129413;1261;114647;-61
2024/02/17 08:45:05;;;;;;;46.70;28.50;;;;;;;11.63;94.04;101021.73;129447;1263;114818;-62
2024/02/17 08:48:11;;;;;;;22.00;16.30;;;;;;;11.75;94.17;101023.54;129537;1262;114715;-62
2024/02/17 08:51:14;;;;;;;12.20;9.10;;;;;;;11.88;94.30;101026.57;129520;1261;114745;-62
2024/02/17 08:54:18;;;;;;;9.70;7.90;;;;;;;12.01;93.81;101035.31;129439;1280;115141;-61
2024/02/17 08:57:20;;;;;;;8.10;6.90;;;;;;;12.15;93.82;101036.31;129505;1280;114785;-63
2024/02/17 09:00:24;;;;;;;8.80;6.90;;;;;;;12.31;93.98;101041.15;129453;1266;114746;-61
2024/02/17 09:03:26;;;;;;;8.90;7.60;;;;;;;12.48;94.01;101044.19;129507;1261;114782;-61
2024/02/17 09:06:28;;;;;;;8.90;7.30;;;;;;;12.63;93.92;101046.00;129478;1280;114818;-62
2024/02/17 09:09:30;;;;;;;7.60;5.60;;;;;;;12.81;93.86;101048.76;129565;1280;114717;-63
2024/02/17 09:12:32;;;;;;;7.10;5.70;;;;;;;13.01;93.80;101054.65;129321;1263;114759;-62
2024/02/17 09:15:34;;;;;;;7.80;5.70;;;;;;;13.20;93.64;101052.28;129529;1263;114698;-62
2024/02/17 09:18:36;;;;;;;8.30;6.00;;;;;;;13.33;92.99;101051.48;129626;1273;114741;-62
2024/02/17 09:21:39;;;;;;;7.20;6.20;;;;;;;13.39;92.42;101053.02;129454;1267;127996;-63
2024/02/17 09:24:41;;;;;;;9.20;6.20;;;;;;;13.41;92.14;101058.48;129559;1280;114783;-62
2024/02/17 09:27:44;;;;;;;7.40;5.60;;;;;;;13.43;91.72;101060.38;129639;1262;114741;-63
2024/02/17 09:30:47;;;;;;;7.70;6.00;;;;;;;13.42;91.49;101060.59;129632;1258;115182;-61
2024/02/17 09:33:49;;;;;;;7.60;5.70;;;;;;;13.38;91.13;101061.45;129680;1261;114805;-61
2024/02/17 09:36:51;;;;;;;7.80;6.40;;;;;;;13.38;90.94;101068.83;129651;1262;116357;-62
2024/02/17 09:39:53;;;;;;;7.90;6.00;;;;;;;13.40;90.79;101071.27;129697;1273;115480;-70
2024/02/17 09:42:56;;;;;;;9.10;6.80;;;;;;;13.46;91.23;101076.16;129778;1264;129042;-68
2024/02/17 09:45:58;;;;;;;9.00;6.60;;;;;;;13.53;91.02;101077.99;129923;1262;115267;-68
2024/02/17 09:49:02;;;;;;;9.60;7.40;;;;;;;13.55;90.78;101080.40;129923;1262;114874;-69
2024/02/17 09:52:04;;;;;;;7.80;5.70;;;;;;;13.60;90.51;101080.16;129934;1263;114726;-69
2024/02/17 09:55:07;;;;;;;6.30;5.50;;;;;;;13.60;90.07;101081.27;129831;1258;114721;-70
2024/02/17 09:58:09;;;;;;;7.40;5.20;;;;;;;13.63;89.99;101087.55;129730;1269;115340;-69
2024/02/17 10:01:11;;;;;;;6.10;4.60;;;;;;;13.73;90.01;101092.79;129710;1271;114843;-69
2024/02/17 10:04:15;;;;;;;6.20;5.10;;;;;;;13.87;89.60;101095.17;129924;1261;114759;-69
2024/02/17 10:07:19;;;;;;;6.70;4.90;;;;;;;13.92;88.76;101100.30;129741;1275;114827;-74
2024/02/17 10:10:22;;;;;;;6.60;3.60;;;;;;;13.85;88.05;101103.16;129778;1280;115055;-70
2024/02/17 10:13:25;;;;;;;8.40;6.50;;;;;;;13.84;87.89;101102.31;129988;1266;114714;-68
2024/02/17 10:16:33;;;;;;;9.40;4.90;;;;;;;13.94;88.47;101098.03;129944;1267;114853;-69
2024/02/17 10:19:35;;;;;;;4.90;4.30;;;;;;;14.12;88.64;101100.73;130123;1271;128772;-68
2024/02/17 10:22:45;;;;;;;4.00;3.00;;;;;;;14.25;88.11;101100.58;129840;1272;114921;-68
2024/02/17 10:25:47;;;;;;;5.90;4.00;;;;;;;14.29;87.17;101105.05;129890;1261;114802;-68
2024/02/17 10:28:56;;;;;;;7.20;4.70;;;;;;;14.31;86.86;101108.01;130024;1264;114737;-68
2024/02/17 10:31:59;;;;;;;10.70;5.30;;;;;;;14.38;86.67;101111.23;129923;1260;114704;-68
2024/02/17 10:35:03;;;;;;;7.50;4.90;;;;;;;14.43;86.07;101112.41;129669;1262;114803;-69
2024/02/17 10:38:06;;;;;;;7.30;3.80;;;;;;;14.45;85.05;101120.75;129821;1275;114801;-67
2024/02/17 10:41:09;;;;;;;6.70;4.10;;;;;;;14.39;84.33;101121.21;129926;1262;114776;-69
2024/02/17 10:44:11;;;;;;;8.70;4.80;;;;;;;14.30;84.16;101128.88;129930;1263;114704;-70
2024/02/17 10:47:14;;;;;;;7.20;4.00;;;;;;;14.25;84.11;101127.73;129753;1258;114777;-68
2024/02/17 10:50:19;;;;;;;7.60;4.70;;;;;;;14.22;83.92;101129.88;129914;1261;114804;-69
2024/02/17 10:53:28;;;;;;;8.10;4.30;;;;;;;14.18;83.52;101137.42;129853;1274;129027;-70
2024/02/17 10:56:30;;;;;;;6.20;3.90;;;;;;;14.16;83.60;101140.20;129847;1263;115352;-68
2024/02/17 10:59:33;;;;;;;6.80;3.90;;;;;;;14.15;83.13;101144.92;129820;1262;114882;-68
2024/02/17 11:02:35;;;;;;;4.30;3.20;;;;;;;14.11;82.73;101144.92;129797;1262;114817;-68
2024/02/17 11:05:41;;;;;;;4.80;3.10;;;;;;;14.03;82.31;101149.11;129926;1269;114716;-68
2024/02/17 11:08:43;;;;;;;7.70;5.00;;;;;;;13.90;82.10;101148.50;129908;1279;114836;-68
2024/02/17 11:11:45;;;;;;;5.70;3.60;;;;;;;13.79;81.79;101149.61;130195;1276;114830;-68
2024/02/17 11:14:47;;;;;;;8.00;4.40;;;;;;;13.66;81.72;101155.45;130059;1269;115135;-68
2024/02/17 11:17:57;;;;;;;6.40;3.80;;;;;;;13.49;81.45;101160.94;129850;1272;115310;-67
2024/02/17 11:20:59;;;;;;;8.80;5.50;;;;;;;13.38;81.77;101153.17;129965;1262;114899;-68
2024/02/17 11:24:01;;;;;;;12.30;6.00;;;;;;;13.36;82.24;101158.26;129905;1258;114969;-67
2024/02/17 11:27:05;;;;;;;10.20;5.10;;;;;;;13.37;82.21;101161.61;130125;1279;115155;-69
2024/02/17 11:30:08;;;;;;;8.40;5.30;;;;;;;13.45;82.48;101162.75;129971;1262;115032;-68
2024/02/17 11:33:14;;;;;;;6.90;5.00;;;;;;;13.49;81.89;101162.51;129991;1261;114692;-67
2024/02/17 11:36:17;;;;;;;4.70;3.50;;;;;;;13.51;81.71;101161.36;130077;1261;114726;-67
2024/02/17 11:39:20;;;;;;;5.60;3.60;;;;;;;13.50;81.59;101161.20;129752;1264;114703;-68
2024/02/17 11:42:22;;;;;;;4.30;2.60;;;;;;;13.46;81.31;101165.88;129714;1277;116517;-67
2024/02/17 11:45:25;;;;;;;4.90;3.40;;;;;;;13.37;80.82;101167.02;129749;1260;115410;-67
2024/02/17 11:48:28;;;;;;;5.80;3.80;;;;;;;13.24;80.30;101173.89;129827;1261;114800;-67
2024/02/17 11:51:32;;;;;;;6.80;3.70;;;;;;;13.13;80.35;101180.30;129799;1271;128638;-67
2024/02/17 11:54:34;;;;;;;4.60;4.00;;;;;;;13.05;80.39;101180.33;129824;1261;114824;-67
2024/02/17 11:57:36;;;;;;;6.50;5.40;;;;;;;12.95;80.38;101187.77;129804;1279;115589;-69
2024/02/17 12:00:47;;;;;;;3.60;2.80;;;;;;;12.86;80.37;101194.30;129916;1261;114788;-67
2024/02/17 12:03:49;;;;;;;5.70;2.80;;;;;;;12.77;80.36;101192.32;129783;1264;114878;-68
2024/02/17 12:06:52;;;;;;;4.20;3.00;;;;;;;12.75;80.45;101199.77;129887;1261;114714;-69
2024/02/17 12:09:53;;;;;;;4.20;2.40;;;;;;;12.78;80.58;101205.21;129842;1263;114768;-70
2024/02/17 12:12:56;;;;;;;4.80;3.10;;;;;;;12.87;80.71;101205.71;129782;1271;115433;-71
2024/02/17 12:16:09;;;;;;;6.90;4.40;;;;;;;13.03;81.10;101205.38;129993;1262;114707;-67
2024/02/17 12:19:11;;;;;;;7.50;3.80;;;;;;;13.21;81.20;101210.13;129490;1261;115310;-66
2024/02/17 12:22:14;;;;;;;6.20;3.40;;;;;;;13.33;80.59;101210.81;129417;1263;114840;-67
2024/02/17 12:25:17;;;;;;;4.20;2.70;;;;;;;13.37;79.75;101208.46;129399;1279;114694;-68
2024/02/17 12:28:34;;;;;;;5.30;3.10;;;;;;;13.41;79.64;101215.67;129432;1264;114684;-68
2024/02/17 12:31:54;;;;;;;5.90;3.00;;;;;;;13.42;78.79;101219.05;129556;1264;114844;-68
2024/02/17 12:35:12;;;;;;;5.30;3.40;;;;;;;13.40;78.36;101225.58;129262;1264;114871;-69
2024/02/17 12:38:21;;;;;;;2.60;2.00;;;;;;;13.43;77.83;101222.94;129268;1266;114776;-70
2024/02/17 12:41:36;;;;;;;4.50;2.30;;;;;;;13.45;77.57;101223.40;129960;1260;128920;-70
2024/02/17 12:44:39;;;;;;;4.50;2.80;;;;;;;13.52;77.70;101231.84;129883;1266;114753;-71
2024/02/17 12:47:42;;;;;;;4.50;2.10;;;;;;;13.57;77.47;101228.73;130014;1261;114865;-69
2024/02/17 12:50:44;;;;;;;5.80;3.30;;;;;;;13.60;76.62;101229.89;129958;1263;114959;-70
2024/02/17 12:53:48;;;;;;;8.60;5.10;;;;;;;13.59;76.48;101234.04;129800;1264;114820;-73
2024/02/17 12:56:54;;;;;;;4.00;1.80;;;;;;;13.61;76.14;101236.62;129270;1264;128505;-69
2024/02/17 12:59:56;;;;;;;2.60;1.60;;;;;;;13.62;75.39;101233.17;129326;1261;114818;-72
2024/02/17 13:02:59;;;;;;;3.80;2.00;;;;;;;13.62;74.33;101241.98;130017;1258;115361;-68
2024/02/17 13:06:04;;;;;;;4.80;1.70;;;;;;;13.58;74.13;101247.17;129539;1263;115383;-69
2024/02/17 13:09:08;;;;;;;3.10;1.30;;;;;;;13.55;73.79;101249.12;129549;1264;114709;-68
2024/02/17 13:12:10;;;;;;;2.30;1.20;;;;;;;13.52;73.54;101253.23;129350;1260;114794;-68
2024/02/17 13:15:16;;;;;;;2.80;1.30;;;;;;;13.45;72.78;101260.34;129394;1263;115221;-67
2024/02/17 13:18:33;;;;;;;2.10;1.10;;;;;;;13.38;72.83;101270.18;129545;1264;115029;-65
2024/02/17 13:22:02;;;;;;;3.40;1.80;;;;;;;13.27;72.44;101272.27;130004;1260;114694;-72
2024/02/17 13:25:16;;;;;;;2.50;1.60;;;;;;;13.16;72.17;101273.27;129348;1273;115044;-70
2024/02/17 13:28:25;;;;;;;4.00;1.60;;;;;;;13.05;71.82;101276.43;129040;1263;202507;-74
2024/02/17 13:31:41;;;;;;;2.50;1.30;;;;;;;12.95;71.80;101278.86;129222;1265;115009;-72
2024/02/17 13:35:30;;;;;;;;;;;;;;;;;;;;;
2024/02/17 13:39:18;;;;;;;;;;;;;;;12.71;72.03;101284.92;128917;1268;114858;-67
2024/02/17 13:42:34;;;;;;;3.80;1.30;;;;;;;12.59;71.88;101289.34;129184;1268;114902;-68
2024/02/17 13:45:51;;;;;;;2.50;1.10;;;;;;;12.50;72.07;101290.45;129091;1279;127868;-68
2024/02/17 13:49:10;;;;;;;3.40;1.60;;;;;;;12.38;71.72;101292.73;129274;1276;114890;-67
2024/02/17 13:53:00;;;;;;;2.80;2.10;;;;;;;12.26;71.91;101296.10;129208;1260;114819;-69
2024/02/17 13:56:17;;;;;;;3.90;1.70;;;;;;;12.17;71.99;101298.60;129029;1267;114986;-69